METAR Data
IDs: Format: Raw Decoded Include TAF

Data at: 1949 UTC 21 Sep 2021

KXNA 211920Z 33017G24KT 10SM SCT032 21/13 A3021 RMK AO2 T02110128
KXNA 211853Z 34013KT 10SM BKN029 21/13 A3022 RMK AO2 SLP223 T02060133
KXNA 211753Z 36017G23KT 10SM BKN023 20/14 A3022 RMK AO2 SLP222 T02000139 10200 20161 50016
KXNA 211653Z 35015G20KT 10SM OVC017 17/14 A3022 RMK AO2 SLP222 T01720139
KXNA 211624Z 01013KT 10SM OVC015 17/14 A3021 RMK AO2 T01720139
KXNA 211553Z 35009G18KT 10SM OVC012 17/14 A3020 RMK AO2 SLP214 T01720144
KXNA 211518Z 03010KT 10SM OVC010 17/14 A3018 RMK AO2 T01670144
KXNA 211453Z 01011KT 10SM OVC009 16/14 A3017 RMK AO2 SLP205 T01610144 51027
KXNA 211353Z 02012KT 10SM OVC010 16/14 A3015 RMK AO2 SLP197 T01610144
KXNA 211346Z 03010KT 10SM OVC010 16/14 A3015 RMK AO2 T01610139
KXNA 211253Z 36009KT 10SM OVC009 16/14 A3014 RMK AO2 CIG 007V012 SLP191 T01610144
KXNA 211232Z 01010KT 10SM OVC009 16/14 A3012 RMK AO2 CIG 008V012 T01610144
KXNA 211210Z 02008KT 10SM BKN011 OVC070 16/15 A3010 RMK AO2 T01610150
KXNA 211153Z COR 01008KT 10SM BKN011 BKN060 OVC070 16/15 A3009 RMK AO2 SLP174 60114 70134 T01610150 10217 20161 51021
KXNA 211148Z 03008KT 10SM SCT011 SCT060 OVC070 16/15 A3009 RMK AO2
KXNA 211138Z 03009G17KT 10SM BKN011 BKN060 OVC070 16/15 A3008 RMK AO2 T01610150
KXNA 211106Z 01013G21KT 10SM OVC009 16/15 A3008 RMK AO2 LTG DSNT E T01610150
KXNA 211053Z 01012KT 10SM OVC010 16/15 A3007 RMK AO2 PK WND 06028/1008 WSHFT 1000 LTG DSNT NE AND E RAB01E52 TSB05E22 CIG 007V013 SLP168 P0020 T01610150
KXNA 211033Z 36015KT 10SM -RA BKN011 BKN030 OVC065 16/16 A3005 RMK AO2 PK WND 06028/1008 WSHFT 1000 LTG DSNT NE-SE RAB01 TSB05E22 P0020 T01610156
KXNA 211027Z 36016KT 5SM VCTS -RA BR SCT009 BKN028 OVC070 16/16 A3005 RMK AO2 PK WND 06028/1008 WSHFT 1000 LTG DSNT N-SE RAB01 TSB05E22 P0020 T01610156
KXNA 211017Z 02016G28KT 6SM -TSRA BR SCT008 BKN038 OVC070 17/15 A3003 RMK AO2 PK WND 06028/1008 WSHFT 1000 LTG DSNT N AND NE RAB01 TSB05 P0013 T01670150
KXNA 211011Z AUTO 05016G28KT 3SM +TSRA BR BKN008 BKN050 OVC070 17/15 A2998 RMK AO2 PK WND 06028/1008 LTG DSNT N AND SE RAB01 TSB05 PRESFR P0010 T01670150
KXNA 211000Z AUTO 32018G28KT 10SM VCTS OVC008 17/16 A3008 RMK AO2 PK WND 31028/0959 LTG DSNT N AND NW CIG 007V011 PRESRR T01720161
KXNA 210953Z AUTO 36015G24KT 10SM BKN008 BKN041 OVC049 17/16 A3003 RMK AO2 PK WND 02027/0913 LTG DSNT E AND NW SLP152 T01720161
KXNA 210945Z AUTO 35010G23KT 10SM BKN008 BKN035 OVC047 18/17 A3002 RMK AO2 PK WND 02027/0913 LTG DSNT NW-E CIG 007V013 T01780167
KXNA 210929Z AUTO 35013G20KT 10SM SCT021 BKN033 OVC055 18/17 A3002 RMK AO2 PK WND 02027/0913 LTG DSNT ALQDS T01780167
KXNA 210915Z AUTO 36015G27KT 10SM SCT014 BKN021 OVC031 18/17 A3001 RMK AO2 PK WND 02027/0913 LTG DSNT N AND NE T01830167
KXNA 210902Z AUTO 35016G25KT 10SM SCT008 BKN014 OVC020 18/17 A3002 RMK AO2 LTG DSNT NE T01830167
KXNA 210853Z AUTO 34017G24KT 10SM BKN007 OVC012 18/17 A3001 RMK AO2 LTG DSNT N-E RAB22E32 TSE10 CIG 006V011 PRESRR SLP147 P0000 60094 T01830172 53011
KXNA 210830Z AUTO 36015KT 10SM -RA BKN006 BKN021 OVC044 20/19 A2998 RMK AO2 LTG DSNT ALQDS RAB22 TSE10 CIG 006V010 P0000 T02000189
KXNA 210824Z AUTO 36004KT 10SM VCTS -RA SCT008 BKN021 OVC045 20/19 A2997 RMK AO2 LTG DSNT ALQDS RAB22 TSE10 P0000 T02000194
KXNA 210816Z AUTO 06005KT 10SM VCTS SCT013 BKN042 OVC050 20/19 A2996 RMK AO2 LTG DSNT ALQDS TSE10 T02000194
KXNA 210753Z AUTO 05005KT 10SM TS SCT008 BKN060 OVC080 20/19 A2996 RMK AO2 LTG DSNT SE AND S AND NW RAE35 TSE16B37 SLP127 P0012 T02000194
KXNA 210743Z AUTO 03009KT 10SM TS FEW008 BKN065 OVC100 20/19 A2996 RMK AO2 LTG DSNT ALQDS RAE35 TSE16B37 P0012 T02000194
KXNA 210722Z AUTO 24007KT 5SM VCTS RA BR FEW050 BKN070 OVC090 20/19 A2994 RMK AO2 LTG DSNT E-SW TSE16 P0012 T02000189
KXNA 210653Z AUTO 19011G23KT 4SM TSRA BR BKN030 BKN070 OVC085 20/19 A2997 RMK AO2 PK WND 21026/0636 WSHFT 0630 LTG DSNT ALQDS SLP132 P0082 T02000189
KXNA 210647Z AUTO 22011G23KT 2SM +TSRA BR BKN029 OVC065 20/19 A2997 RMK AO2 PK WND 21026/0636 WSHFT 0630 LTG DSNT ALQDS P0080
KXNA 210626Z AUTO 29011G17KT 1 3/4SM R16/4000VP6000FT +TSRA BR FEW010 BKN023 OVC070 21/19 A2997 RMK AO2 LTG DSNT ALQDS P0028 T02110194
KXNA 210618Z AUTO 03008KT 6SM -TSRA BR FEW006 BKN050 OVC075 21/20 A2993 RMK AO2 LTG DSNT ALQDS PRESFR P0008 T02110200
KXNA 210611Z AUTO 36006G19KT 7SM TSRA SCT008 BKN015 OVC055 21/21 A2996 RMK AO2 LTG DSNT ALQDS PRESFR P0005 T02110206
KXNA 210553Z AUTO 03008KT 4SM TSRA BR SCT007 BKN012 OVC032 22/21 A2998 RMK AO2 PK WND 03028/0517 LTG DSNT ALQDS RAB25 TSB07E22B25 SLP135 P0020 60020 T02170206 10311 20211 403390194 50034
KXNA 210550Z AUTO 01009KT 5SM +TSRA BR FEW007 BKN020 OVC037 22/21 A2999 RMK AO2 PK WND 03028/0517 LTG DSNT ALQDS RAB25 TSB07E22B25 P0019
KXNA 210537Z AUTO 04010KT 3SM R16/6000VP6000FT -TSRA BR SCT007 BKN012 OVC029 21/20 A2996 RMK AO2 PK WND 03028/0517 LTG DSNT ALQDS RAB25 TSB07E22B25 P0012 T02110200
KXNA 210533Z AUTO 05012G20KT 2 1/2SM R16/6000VP6000FT +TSRA BR FEW007 BKN020 OVC029 21/21 A2996 RMK AO2 PK WND 03028/0517 LTG DSNT ALQDS RAB25 TSB07E22B25 P0012 T02110206
KXNA 210521Z AUTO 36014G28KT 10SM TS BKN029 BKN070 OVC085 23/19 A2996 RMK AO2 PK WND 03028/0517 LTG DSNT W-NE TSB07 T02330194
KXNA 210513Z AUTO 35018G24KT 10SM TS SCT029 BKN065 OVC100 25/19 A2995 RMK AO2 LTG DSNT W-NE TSB07 T02500194
KXNA 210503Z AUTO 10SM VCTS BKN085 BKN110 27/21 A2994 RMK AO2 LTG DSNT ALQDS PRESRR T02720211
KXNA 210453Z AUTO 18006KT 10SM BKN100 OVC110 27/21 A2991 RMK AO2 LTG DSNT W-N PRESRR SLP109 T02720211
KXNA 210353Z AUTO 17009KT 10SM CLR 27/20 A2987 RMK AO2 LTG DSNT N AND NW SLP098 T02670200
KXNA 210253Z 17007KT 10SM CLR 26/19 A2988 RMK AO2 SLP102 T02610189 53020
KXNA 210153Z 17008KT 10SM CLR 28/18 A2986 RMK AO2 SLP096 T02780183
KXNA 210053Z 18010KT 10SM CLR 29/18 A2983 RMK AO2 SLP084 T02940178
KXNA 202353Z 16011KT 10SM CLR 31/18 A2982 RMK AO2 SLP082 T03110178 10339 20311 55003
KXNA 202253Z 17011KT 10SM CLR 33/18 A2982 RMK AO2 SLP081 T03280183
KXNA 202153Z 18014KT 10SM CLR 34/18 A2982 RMK AO2 SLP081 T03390183
KXNA 202053Z 18011G20KT 10SM CLR 34/18 A2983 RMK AO2 SLP084 T03390178 57017
KXNA 201953Z 18017G22KT 10SM CLR 34/17 A2984 RMK AO2 SLP088 T03390172